sensor_id;sensor_type;location;lat;lon;timestamp;pressure;altitude;pressure_sealevel;temperature;humidity
47556;BME280;33291;46.222;26.460;2022-10-28T00:01:22;97880.03;;;6.98;90.08
47556;BME280;33291;46.222;26.460;2022-10-28T00:03:51;97867.41;;;6.91;89.67
47556;BME280;33291;46.222;26.460;2022-10-28T00:06:23;97882.13;;;7.07;89.74
47556;BME280;33291;46.222;26.460;2022-10-28T00:08:49;97879.84;;;7.01;90.00
47556;BME280;33291;46.222;26.460;2022-10-28T00:11:23;97892.81;;;7.01;89.55
47556;BME280;33291;46.222;26.460;2022-10-28T00:13:49;97880.84;;;6.82;90.07
47556;BME280;33291;46.222;26.460;2022-10-28T00:16:19;97896.22;;;6.85;90.18
47556;BME280;33291;46.222;26.460;2022-10-28T00:18:46;97880.00;;;6.82;90.11
47556;BME280;33291;46.222;26.460;2022-10-28T00:21:14;97853.09;;;6.68;89.90
47556;BME280;33291;46.222;26.460;2022-10-28T00:23:40;97881.84;;;6.80;90.14
47556;BME280;33291;46.222;26.460;2022-10-28T00:26:14;97880.84;;;6.82;90.48
47556;BME280;33291;46.222;26.460;2022-10-28T00:28:45;97885.88;;;6.85;90.65
47556;BME280;33291;46.222;26.460;2022-10-28T00:31:14;97875.50;;;6.85;90.71
47556;BME280;33291;46.222;26.460;2022-10-28T00:33:40;97873.66;;;6.87;90.37
47556;BME280;33291;46.222;26.460;2022-10-28T00:36:28;97882.19;;;6.89;90.39
47556;BME280;33291;46.222;26.460;2022-10-28T00:38:54;97862.81;;;6.81;90.55
47556;BME280;33291;46.222;26.460;2022-10-28T00:41:25;97874.44;;;6.89;90.62
47556;BME280;33291;46.222;26.460;2022-10-28T00:43:56;97859.75;;;6.72;90.60
47556;BME280;33291;46.222;26.460;2022-10-28T00:46:41;97879.25;;;6.80;90.79
47556;BME280;33291;46.222;26.460;2022-10-28T00:49:20;97878.59;;;6.76;90.48
47556;BME280;33291;46.222;26.460;2022-10-28T00:51:50;97873.91;;;6.67;91.11
47556;BME280;33291;46.222;26.460;2022-10-28T00:54:17;97877.06;;;6.72;90.93
47556;BME280;33291;46.222;26.460;2022-10-28T00:56:48;97872.97;;;6.68;91.19
47556;BME280;33291;46.222;26.460;2022-10-28T00:59:20;97874.88;;;6.64;91.56
47556;BME280;33291;46.222;26.460;2022-10-28T01:01:47;97857.47;;;6.50;91.43
47556;BME280;33291;46.222;26.460;2022-10-28T01:04:13;97873.59;;;6.55;91.68
47556;BME280;33291;46.222;26.460;2022-10-28T01:06:40;97868.66;;;6.51;91.76
47556;BME280;33291;46.222;26.460;2022-10-28T01:09:05;97869.66;;;6.48;91.99
47556;BME280;33291;46.222;26.460;2022-10-28T01:14:30;97872.84;;;6.53;91.55
47556;BME280;33291;46.222;26.460;2022-10-28T01:26:00;97850.88;;;6.45;91.44
47556;BME280;33291;46.222;26.460;2022-10-28T01:31:26;97869.78;;;6.29;91.90
47556;BME280;33291;46.222;26.460;2022-10-28T01:34:08;97873.19;;;6.30;92.40
47556;BME280;33291;46.222;26.460;2022-10-28T01:39:33;97874.88;;;6.31;92.01
47556;BME280;33291;46.222;26.460;2022-10-28T01:45:00;97866.22;;;6.32;91.87
47556;BME280;33291;46.222;26.460;2022-10-28T01:47:36;97874.88;;;6.31;91.86
47556;BME280;33291;46.222;26.460;2022-10-28T01:50:08;97866.38;;;6.29;91.88
47556;BME280;33291;46.222;26.460;2022-10-28T01:52:36;97858.13;;;6.20;91.39
47556;BME280;33291;46.222;26.460;2022-10-28T01:55:17;97856.41;;;6.21;91.68
47556;BME280;33291;46.222;26.460;2022-10-28T01:57:47;97855.47;;;6.22;91.70
47556;BME280;33291;46.222;26.460;2022-10-28T02:00:14;97847.78;;;6.20;92.16
47556;BME280;33291;46.222;26.460;2022-10-28T02:02:40;97856.19;;;6.26;92.03
47556;BME280;33291;46.222;26.460;2022-10-28T02:13:36;97853.13;;;6.17;92.54
47556;BME280;33291;46.222;26.460;2022-10-28T02:16:23;97843.91;;;6.12;92.51
47556;BME280;33291;46.222;26.460;2022-10-28T02:21:45;97851.16;;;6.22;92.54
47556;BME280;33291;46.222;26.460;2022-10-28T02:30:13;97854.81;;;6.18;92.32
47556;BME280;33291;46.222;26.460;2022-10-28T02:32:44;97823.94;;;5.98;92.11
47556;BME280;33291;46.222;26.460;2022-10-28T02:35:15;97841.72;;;6.04;92.54
47556;BME280;33291;46.222;26.460;2022-10-28T02:37:44;97841.72;;;6.04;92.64
47556;BME280;33291;46.222;26.460;2022-10-28T02:40:18;97817.31;;;5.92;92.66
47556;BME280;33291;46.222;26.460;2022-10-28T02:42:52;97840.75;;;6.07;92.80
47556;BME280;33291;46.222;26.460;2022-10-28T02:45:22;97853.91;;;6.02;93.45
47556;BME280;33291;46.222;26.460;2022-10-28T02:47:56;97840.38;;;5.97;93.31
47556;BME280;33291;46.222;26.460;2022-10-28T02:50:32;97824.19;;;5.92;93.35
47556;BME280;33291;46.222;26.460;2022-10-28T02:53:01;97838.31;;;6.03;93.43
47556;BME280;33291;46.222;26.460;2022-10-28T02:55:35;97839.91;;;6.06;93.29
47556;BME280;33291;46.222;26.460;2022-10-28T02:58:04;97834.66;;;6.08;93.40
47556;BME280;33291;46.222;26.460;2022-10-28T03:00:29;97834.13;;;6.01;93.65
47556;BME280;33291;46.222;26.460;2022-10-28T03:02:55;97820.63;;;5.94;93.12
47556;BME280;33291;46.222;26.460;2022-10-28T03:05:20;97839.28;;;6.01;93.13
47556;BME280;33291;46.222;26.460;2022-10-28T03:07:46;97824.97;;;5.94;93.12
47556;BME280;33291;46.222;26.460;2022-10-28T03:10:11;97832.53;;;5.98;93.38
47556;BME280;33291;46.222;26.460;2022-10-28T03:12:37;97834.13;;;6.01;93.77
47556;BME280;33291;46.222;26.460;2022-10-28T03:15:03;97824.53;;;6.03;93.56
47556;BME280;33291;46.222;26.460;2022-10-28T03:17:29;97825.53;;;6.00;93.49
47556;BME280;33291;46.222;26.460;2022-10-28T03:19:54;97824.69;;;6.00;93.64
47556;BME280;33291;46.222;26.460;2022-10-28T03:22:20;97804.44;;;5.91;93.39
47556;BME280;33291;46.222;26.460;2022-10-28T03:24:45;97820.28;;;6.02;93.27
47556;BME280;33291;46.222;26.460;2022-10-28T03:27:11;97824.69;;;6.00;93.58
47556;BME280;33291;46.222;26.460;2022-10-28T03:29:36;97803.59;;;5.90;93.87
47556;BME280;33291;46.222;26.460;2022-10-28T03:32:02;97823.84;;;5.99;94.10
47556;BME280;33291;46.222;26.460;2022-10-28T03:34:27;97810.44;;;5.91;93.89
47556;BME280;33291;46.222;26.460;2022-10-28T03:36:53;97823.69;;;6.02;94.06
47556;BME280;33291;46.222;26.460;2022-10-28T03:39:18;97805.44;;;5.88;93.86
47556;BME280;33291;46.222;26.460;2022-10-28T03:41:44;97829.94;;;5.98;93.38
47556;BME280;33291;46.222;26.460;2022-10-28T03:44:09;97820.72;;;5.93;93.54
47556;BME280;33291;46.222;26.460;2022-10-28T03:46:35;97822.41;;;5.94;93.75
47556;BME280;33291;46.222;26.460;2022-10-28T03:49:00;97825.69;;;5.97;93.78
47556;BME280;33291;46.222;26.460;2022-10-28T03:51:26;97828.94;;;6.01;93.91
47556;BME280;33291;46.222;26.460;2022-10-28T03:53:51;97823.16;;;5.96;93.89
47556;BME280;33291;46.222;26.460;2022-10-28T03:56:17;97814.16;;;5.85;93.61
47556;BME280;33291;46.222;26.460;2022-10-28T03:58:45;97828.41;;;5.94;94.03
47556;BME280;33291;46.222;26.460;2022-10-28T04:01:11;97830.31;;;5.91;93.72
47556;BME280;33291;46.222;26.460;2022-10-28T04:03:36;97815.69;;;5.90;93.82
47556;BME280;33291;46.222;26.460;2022-10-28T04:06:02;97821.03;;;5.86;93.72
47556;BME280;33291;46.222;26.460;2022-10-28T04:08:28;97827.84;;;5.87;93.92
47556;BME280;33291;46.222;26.460;2022-10-28T04:10:53;97828.78;;;5.86;93.52
47556;BME280;33291;46.222;26.460;2022-10-28T04:13:19;97823.53;;;5.88;93.78
47556;BME280;33291;46.222;26.460;2022-10-28T04:15:44;97816.09;;;5.82;93.61
47556;BME280;33291;46.222;26.460;2022-10-28T04:18:10;97828.84;;;5.85;93.54
47556;BME280;33291;46.222;26.460;2022-10-28T04:20:36;97806.22;;;5.73;93.60
47556;BME280;33291;46.222;26.460;2022-10-28T04:23:02;97820.56;;;5.78;93.57
47556;BME280;33291;46.222;26.460;2022-10-28T04:25:27;97813.72;;;5.77;93.83
47556;BME280;33291;46.222;26.460;2022-10-28T04:27:53;97809.63;;;5.73;93.78
47556;BME280;33291;46.222;26.460;2022-10-28T04:30:19;97818.03;;;5.77;93.75
47556;BME280;33291;46.222;26.460;2022-10-28T04:32:45;97812.88;;;5.77;93.68
47556;BME280;33291;46.222;26.460;2022-10-28T04:35:11;97820.72;;;5.75;93.86
47556;BME280;33291;46.222;26.460;2022-10-28T04:37:38;97814.03;;;5.71;94.20
47556;BME280;33291;46.222;26.460;2022-10-28T04:40:04;97817.38;;;5.73;94.05
47556;BME280;33291;46.222;26.460;2022-10-28T04:42:30;97814.19;;;5.68;93.51
47556;BME280;33291;46.222;26.460;2022-10-28T04:44:56;97801.66;;;5.60;93.43
47556;BME280;33291;46.222;26.460;2022-10-28T04:47:21;97806.03;;;5.58;93.40
47556;BME280;33291;46.222;26.460;2022-10-28T04:49:47;97813.88;;;5.57;93.28
47556;BME280;33291;46.222;26.460;2022-10-28T04:52:13;97816.44;;;5.57;93.21
47556;BME280;33291;46.222;26.460;2022-10-28T04:54:39;97803.22;;;5.45;93.81
47556;BME280;33291;46.222;26.460;2022-10-28T04:57:04;97819.13;;;5.55;94.18
47556;BME280;33291;46.222;26.460;2022-10-28T04:59:30;97814.75;;;5.56;94.39
47556;BME280;33291;46.222;26.460;2022-10-28T05:01:55;97814.75;;;5.56;94.33
47556;BME280;33291;46.222;26.460;2022-10-28T05:04:21;97822.81;;;5.49;94.04
47556;BME280;33291;46.222;26.460;2022-10-28T05:06:46;97812.72;;;5.45;94.13
47556;BME280;33291;46.222;26.460;2022-10-28T05:09:12;97818.75;;;5.45;94.14
47556;BME280;33291;46.222;26.460;2022-10-28T05:11:38;97828.22;;;5.45;93.98
47556;BME280;33291;46.222;26.460;2022-10-28T05:14:03;97821.63;;;5.39;93.78
47556;BME280;33291;46.222;26.460;2022-10-28T05:16:29;97818.97;;;5.41;93.67
47556;BME280;33291;46.222;26.460;2022-10-28T05:18:55;97815.00;;;5.33;93.70
47556;BME280;33291;46.222;26.460;2022-10-28T05:21:20;97824.34;;;5.36;93.72
47556;BME280;33291;46.222;26.460;2022-10-28T05:23:46;97816.59;;;5.36;93.63
47556;BME280;33291;46.222;26.460;2022-10-28T05:26:12;97820.91;;;5.36;93.52
47556;BME280;33291;46.222;26.460;2022-10-28T05:28:38;97823.50;;;5.36;93.58
47556;BME280;33291;46.222;26.460;2022-10-28T05:31:03;97823.56;;;5.34;93.79
47556;BME280;33291;46.222;26.460;2022-10-28T05:33:29;97807.38;;;5.30;93.82
47556;BME280;33291;46.222;26.460;2022-10-28T05:35:57;97811.91;;;5.25;94.05
47556;BME280;33291;46.222;26.460;2022-10-28T05:38:23;97811.16;;;5.23;94.37
47556;BME280;33291;46.222;26.460;2022-10-28T05:40:48;97817.03;;;5.27;94.40
47556;BME280;33291;46.222;26.460;2022-10-28T05:43:14;97802.75;;;5.20;95.15
47556;BME280;33291;46.222;26.460;2022-10-28T05:45:39;97810.94;;;5.28;95.24
47556;BME280;33291;46.222;26.460;2022-10-28T05:48:05;97813.47;;;5.29;95.64
47556;BME280;33291;46.222;26.460;2022-10-28T05:50:31;97814.00;;;5.36;95.84
47556;BME280;33291;46.222;26.460;2022-10-28T05:52:57;97802.97;;;5.32;96.37
47556;BME280;33291;46.222;26.460;2022-10-28T05:55:24;97811.81;;;5.46;96.87
47556;BME280;33291;46.222;26.460;2022-10-28T05:57:52;97818.44;;;5.51;96.82
47556;BME280;33291;46.222;26.460;2022-10-28T06:00:19;97820.94;;;5.53;96.83
47556;BME280;33291;46.222;26.460;2022-10-28T06:02:45;97818.97;;;5.58;96.63
47556;BME280;33291;46.222;26.460;2022-10-28T06:05:11;97815.78;;;5.53;97.01
47556;BME280;33291;46.222;26.460;2022-10-28T06:07:38;97821.41;;;5.61;96.73
47556;BME280;33291;46.222;26.460;2022-10-28T06:10:06;97819.59;;;5.63;96.99
47556;BME280;33291;46.222;26.460;2022-10-28T06:12:32;97817.69;;;5.67;96.91
47556;BME280;33291;46.222;26.460;2022-10-28T06:14:57;97824.38;;;5.71;96.74
47556;BME280;33291;46.222;26.460;2022-10-28T06:17:23;97821.72;;;5.73;96.81
47556;BME280;33291;46.222;26.460;2022-10-28T06:19:48;97827.72;;;5.73;96.57
47556;BME280;33291;46.222;26.460;2022-10-28T06:22:14;97820.13;;;5.70;97.25
47556;BME280;33291;46.222;26.460;2022-10-28T06:24:40;97820.19;;;5.68;97.88
47556;BME280;33291;46.222;26.460;2022-10-28T06:27:05;97812.66;;;5.64;97.88
47556;BME280;33291;46.222;26.460;2022-10-28T06:29:32;97810.97;;;5.63;98.12
47556;BME280;33291;46.222;26.460;2022-10-28T06:31:58;97812.75;;;5.62;98.92
47556;BME280;33291;46.222;26.460;2022-10-28T06:34:23;97806.66;;;5.63;98.68
47556;BME280;33291;46.222;26.460;2022-10-28T06:36:49;97821.50;;;5.77;98.62
47556;BME280;33291;46.222;26.460;2022-10-28T06:39:14;97823.75;;;5.83;98.96
47556;BME280;33291;46.222;26.460;2022-10-28T06:41:40;97815.63;;;5.91;98.25
47556;BME280;33291;46.222;26.460;2022-10-28T06:44:05;97824.22;;;6.09;97.37
47556;BME280;33291;46.222;26.460;2022-10-28T06:46:31;97817.81;;;6.16;96.56
47556;BME280;33291;46.222;26.460;2022-10-28T06:48:57;97817.19;;;6.29;95.72
47556;BME280;33291;46.222;26.460;2022-10-28T06:51:23;97817.31;;;6.43;95.47
47556;BME280;33291;46.222;26.460;2022-10-28T06:53:49;97820.09;;;6.56;95.46
47556;BME280;33291;46.222;26.460;2022-10-28T06:56:15;97810.22;;;6.63;94.43
47556;BME280;33291;46.222;26.460;2022-10-28T06:58:41;97814.00;;;6.73;94.63
47556;BME280;33291;46.222;26.460;2022-10-28T07:01:06;97815.19;;;6.83;94.45
47556;BME280;33291;46.222;26.460;2022-10-28T07:03:32;97809.34;;;6.96;95.13
47556;BME280;33291;46.222;26.460;2022-10-28T07:05:58;97818.25;;;7.06;94.42
47556;BME280;33291;46.222;26.460;2022-10-28T07:08:25;97806.63;;;7.13;93.97
47556;BME280;33291;46.222;26.460;2022-10-28T07:10:58;97810.97;;;7.28;94.00
47556;BME280;33291;46.222;26.460;2022-10-28T07:13:24;97806.94;;;7.39;93.78
47556;BME280;33291;46.222;26.460;2022-10-28T07:15:55;97808.09;;;7.49;94.14
47556;BME280;33291;46.222;26.460;2022-10-28T07:18:23;97805.53;;;7.63;94.14
47556;BME280;33291;46.222;26.460;2022-10-28T07:20:49;97804.84;;;7.76;93.86
47556;BME280;33291;46.222;26.460;2022-10-28T07:23:14;97797.25;;;7.87;93.67
47556;BME280;33291;46.222;26.460;2022-10-28T07:25:40;97793.38;;;7.94;93.78
47556;BME280;33291;46.222;26.460;2022-10-28T07:28:06;97792.38;;;8.11;94.78
47556;BME280;33291;46.222;26.460;2022-10-28T07:30:32;97786.91;;;8.16;94.02
47556;BME280;33291;46.222;26.460;2022-10-28T07:32:58;97782.19;;;8.23;94.08
47556;BME280;33291;46.222;26.460;2022-10-28T07:35:26;97791.31;;;8.44;94.24
47556;BME280;33291;46.222;26.460;2022-10-28T07:37:52;97796.38;;;8.60;93.67
47556;BME280;33291;46.222;26.460;2022-10-28T07:40:19;97789.78;;;8.69;95.11
47556;BME280;33291;46.222;26.460;2022-10-28T07:42:45;97791.13;;;8.89;95.39
47556;BME280;33291;46.222;26.460;2022-10-28T07:45:11;97795.16;;;9.07;95.03
47556;BME280;33291;46.222;26.460;2022-10-28T07:47:36;97790.75;;;9.22;95.54
47556;BME280;33291;46.222;26.460;2022-10-28T07:50:03;97784.13;;;9.31;94.37
47556;BME280;33291;46.222;26.460;2022-10-28T07:52:29;97773.03;;;9.42;92.12
47556;BME280;33291;46.222;26.460;2022-10-28T07:54:54;97776.09;;;9.62;91.43
47556;BME280;33291;46.222;26.460;2022-10-28T07:57:20;97781.56;;;9.84;90.72
47556;BME280;33291;46.222;26.460;2022-10-28T07:59:45;97769.50;;;9.96;89.54
47556;BME280;33291;46.222;26.460;2022-10-28T08:02:16;97773.34;;;10.16;89.42
47556;BME280;33291;46.222;26.460;2022-10-28T08:04:42;97770.91;;;10.26;88.93
47556;BME280;33291;46.222;26.460;2022-10-28T08:07:07;97764.88;;;10.38;88.44
47556;BME280;33291;46.222;26.460;2022-10-28T08:09:33;97746.44;;;10.41;88.02
47556;BME280;33291;46.222;26.460;2022-10-28T08:11:58;97777.00;;;10.76;86.41
47556;BME280;33291;46.222;26.460;2022-10-28T08:14:24;97773.09;;;10.95;86.11
47556;BME280;33291;46.222;26.460;2022-10-28T08:16:49;97768.44;;;11.11;85.83
47556;BME280;33291;46.222;26.460;2022-10-28T08:19:15;97736.22;;;11.12;85.23
47556;BME280;33291;46.222;26.460;2022-10-28T08:21:40;97759.81;;;11.46;84.48
47556;BME280;33291;46.222;26.460;2022-10-28T08:24:06;97755.72;;;11.66;83.42
47556;BME280;33291;46.222;26.460;2022-10-28T08:26:32;97751.03;;;11.83;82.56
47556;BME280;33291;46.222;26.460;2022-10-28T08:28:57;97740.75;;;11.93;81.49
47556;BME280;33291;46.222;26.460;2022-10-28T08:31:25;97748.59;;;12.15;80.61
47556;BME280;33291;46.222;26.460;2022-10-28T08:33:51;97729.84;;;12.21;80.52
47556;BME280;33291;46.222;26.460;2022-10-28T08:36:17;97746.22;;;12.46;79.86
47556;BME280;33291;46.222;26.460;2022-10-28T08:38:45;97740.25;;;12.67;78.49
47556;BME280;33291;46.222;26.460;2022-10-28T08:49:36;97742.72;;;13.23;76.37
47556;BME280;33291;46.222;26.460;2022-10-28T08:52:28;97751.00;;;13.40;76.31
47556;BME280;33291;46.222;26.460;2022-10-28T08:57:39;97734.28;;;13.73;75.42
47556;BME280;33291;46.222;26.460;2022-10-28T09:00:16;97730.25;;;13.90;74.21
47556;BME280;33291;46.222;26.460;2022-10-28T09:05:24;97739.31;;;14.38;72.11
47556;BME280;33291;46.222;26.460;2022-10-28T09:07:50;97729.13;;;14.54;70.81
47556;BME280;33291;46.222;26.460;2022-10-28T09:10:24;97724.97;;;14.73;69.65
47556;BME280;33291;46.222;26.460;2022-10-28T09:15:48;97712.56;;;15.14;66.19
47556;BME280;33291;46.222;26.460;2022-10-28T09:18:19;97716.84;;;15.35;65.53
47556;BME280;33291;46.222;26.460;2022-10-28T09:20:53;97705.22;;;15.57;64.45
47556;BME280;33291;46.222;26.460;2022-10-28T09:23:31;97710.72;;;15.73;63.70
47556;BME280;33291;46.222;26.460;2022-10-28T09:34:50;97700.72;;;16.34;59.48
47556;BME280;33291;46.222;26.460;2022-10-28T09:37:23;97694.28;;;16.46;58.33
47556;BME280;33291;46.222;26.460;2022-10-28T09:39:54;97696.56;;;16.59;58.33
47556;BME280;33291;46.222;26.460;2022-10-28T09:42:46;97702.16;;;16.74;57.30
47556;BME280;33291;46.222;26.460;2022-10-28T09:45:20;97689.50;;;16.87;57.16
47556;BME280;33291;46.222;26.460;2022-10-28T09:48:09;97695.22;;;17.01;55.98
47556;BME280;33291;46.222;26.460;2022-10-28T09:50:38;97691.69;;;17.10;56.38
47556;BME280;33291;46.222;26.460;2022-10-28T09:55:42;97680.47;;;17.26;55.55
47556;BME280;33291;46.222;26.460;2022-10-28T09:58:09;97678.72;;;17.35;54.86
47556;BME280;33291;46.222;26.460;2022-10-28T10:00:36;97680.09;;;17.39;54.59
47556;BME280;33291;46.222;26.460;2022-10-28T10:03:01;97670.22;;;17.41;54.51
47556;BME280;33291;46.222;26.460;2022-10-28T10:05:27;97664.03;;;17.50;54.12
47556;BME280;33291;46.222;26.460;2022-10-28T10:08:02;97675.28;;;17.61;53.41
47556;BME280;33291;46.222;26.460;2022-10-28T10:11:10;97669.88;;;17.62;52.85
47556;BME280;33291;46.222;26.460;2022-10-28T10:13:40;97660.84;;;17.65;52.93
47556;BME280;33291;46.222;26.460;2022-10-28T10:16:20;97655.88;;;17.62;52.63
47556;BME280;33291;46.222;26.460;2022-10-28T10:18:50;97655.91;;;17.70;52.87
47556;BME280;33291;46.222;26.460;2022-10-28T10:21:45;97663.66;;;17.71;52.00
47556;BME280;33291;46.222;26.460;2022-10-28T10:26:50;97663.41;;;17.83;52.60
47556;BME280;33291;46.222;26.460;2022-10-28T10:29:16;97660.69;;;17.92;52.27
47556;BME280;33291;46.222;26.460;2022-10-28T10:31:41;97650.97;;;17.93;51.57
47556;BME280;33291;46.222;26.460;2022-10-28T10:34:23;97650.53;;;17.98;51.38
47556;BME280;33291;46.222;26.460;2022-10-28T10:36:54;97631.91;;;17.99;51.44
47556;BME280;33291;46.222;26.460;2022-10-28T10:39:33;97633.75;;;18.07;51.03
47556;BME280;33291;46.222;26.460;2022-10-28T10:41:59;97629.63;;;18.13;51.09
47556;BME280;33291;46.222;26.460;2022-10-28T10:44:34;97636.63;;;18.30;50.75
47556;BME280;33291;46.222;26.460;2022-10-28T10:49:28;97625.13;;;18.39;50.46
47556;BME280;33291;46.222;26.460;2022-10-28T10:51:59;97621.50;;;18.49;49.49
47556;BME280;33291;46.222;26.460;2022-10-28T10:54:28;97638.03;;;18.59;49.71
47556;BME280;33291;46.222;26.460;2022-10-28T10:57:16;97632.91;;;18.65;49.60
47556;BME280;33291;46.222;26.460;2022-10-28T10:59:50;97612.50;;;18.68;49.21
47556;BME280;33291;46.222;26.460;2022-10-28T11:02:36;97606.22;;;18.69;49.12
47556;BME280;33291;46.222;26.460;2022-10-28T11:05:08;97613.19;;;18.86;48.91
47556;BME280;33291;46.222;26.460;2022-10-28T11:07:36;97605.94;;;18.88;48.72
47556;BME280;33291;46.222;26.460;2022-10-28T11:10:05;97606.13;;;18.95;48.24
47556;BME280;33291;46.222;26.460;2022-10-28T11:12:33;97612.03;;;18.97;48.48
47556;BME280;33291;46.222;26.460;2022-10-28T11:17:55;97607.09;;;19.02;48.07
47556;BME280;33291;46.222;26.460;2022-10-28T11:20:26;97597.03;;;19.06;47.88
47556;BME280;33291;46.222;26.460;2022-10-28T11:25:52;97594.22;;;19.07;47.42
47556;BME280;33291;46.222;26.460;2022-10-28T11:44:51;97583.13;;;19.37;47.09
47556;BME280;33291;46.222;26.460;2022-10-28T11:50:28;97578.16;;;19.42;46.89
47556;BME280;33291;46.222;26.460;2022-10-28T11:58:54;97577.00;;;19.52;46.42
47556;BME280;33291;46.222;26.460;2022-10-28T12:17:48;97563.56;;;19.62;46.37
47556;BME280;33291;46.222;26.460;2022-10-28T12:20:31;97553.34;;;19.59;46.28
47556;BME280;33291;46.222;26.460;2022-10-28T12:23:03;97542.78;;;19.51;46.26
47556;BME280;33291;46.222;26.460;2022-10-28T12:25:34;97561.09;;;19.61;46.45
47556;BME280;33291;46.222;26.460;2022-10-28T12:28:10;97544.09;;;19.55;46.42
47556;BME280;33291;46.222;26.460;2022-10-28T12:30:41;97536.22;;;19.47;46.57
47556;BME280;33291;46.222;26.460;2022-10-28T12:35:50;97550.38;;;19.62;47.08
47556;BME280;33291;46.222;26.460;2022-10-28T12:38:26;97552.03;;;19.63;46.99
47556;BME280;33291;46.222;26.460;2022-10-28T12:41:12;97557.31;;;19.63;46.60
47556;BME280;33291;46.222;26.460;2022-10-28T12:44:17;97544.44;;;19.52;46.86
47556;BME280;33291;46.222;26.460;2022-10-28T12:46:59;97547.75;;;19.46;46.67
47556;BME280;33291;46.222;26.460;2022-10-28T12:49:46;97549.94;;;19.42;47.56
47556;BME280;33291;46.222;26.460;2022-10-28T12:57:39;97544.66;;;19.42;47.35
47556;BME280;33291;46.222;26.460;2022-10-28T13:02:46;97531.47;;;19.17;47.35
47556;BME280;33291;46.222;26.460;2022-10-28T13:05:26;97521.94;;;19.16;48.02
47556;BME280;33291;46.222;26.460;2022-10-28T13:10:47;97508.72;;;19.16;46.87
47556;BME280;33291;46.222;26.460;2022-10-28T13:13:36;97518.78;;;19.13;47.24
47556;BME280;33291;46.222;26.460;2022-10-28T13:24:24;97535.59;;;19.20;48.59
47556;BME280;33291;46.222;26.460;2022-10-28T13:26:51;97531.31;;;19.27;48.28
47556;BME280;33291;46.222;26.460;2022-10-28T13:29:21;97536.16;;;19.63;48.00
47556;BME280;33291;46.222;26.460;2022-10-28T13:31:48;97544.72;;;19.65;48.15
47556;BME280;33291;46.222;26.460;2022-10-28T13:34:17;97523.47;;;19.50;47.64
47556;BME280;33291;46.222;26.460;2022-10-28T13:36:46;97531.44;;;19.34;48.22
47556;BME280;33291;46.222;26.460;2022-10-28T13:39:24;97545.16;;;19.38;48.55
47556;BME280;33291;46.222;26.460;2022-10-28T13:47:33;97541.03;;;21.15;45.29
47556;BME280;33291;46.222;26.460;2022-10-28T13:52:31;97532.19;;;22.19;42.78
47556;BME280;33291;46.222;26.460;2022-10-28T13:54:57;97520.19;;;23.10;41.02
47556;BME280;33291;46.222;26.460;2022-10-28T13:57:32;97532.34;;;23.60;39.25
47556;BME280;33291;46.222;26.460;2022-10-28T14:00:00;97530.38;;;23.34;39.93
47556;BME280;33291;46.222;26.460;2022-10-28T14:02:36;97528.00;;;22.68;41.68
47556;BME280;33291;46.222;26.460;2022-10-28T14:05:09;97544.03;;;21.42;44.40
47556;BME280;33291;46.222;26.460;2022-10-28T14:07:56;97515.66;;;20.36;46.46
47556;BME280;33291;46.222;26.460;2022-10-28T14:10:31;97535.13;;;19.81;48.64
47556;BME280;33291;46.222;26.460;2022-10-28T14:13:03;97525.69;;;19.30;49.59
47556;BME280;33291;46.222;26.460;2022-10-28T14:15:33;97547.38;;;19.01;50.95
47556;BME280;33291;46.222;26.460;2022-10-28T14:18:06;97546.50;;;18.59;52.49
47556;BME280;33291;46.222;26.460;2022-10-28T14:33:38;97558.47;;;17.17;56.03
47556;BME280;33291;46.222;26.460;2022-10-28T14:47:52;97539.00;;;16.48;59.10
47556;BME280;33291;46.222;26.460;2022-10-28T14:50:23;97546.41;;;16.34;59.38
47556;BME280;33291;46.222;26.460;2022-10-28T14:52:52;97545.34;;;16.09;60.47
47556;BME280;33291;46.222;26.460;2022-10-28T14:55:27;97553.88;;;15.93;61.07
47556;BME280;33291;46.222;26.460;2022-10-28T14:58:22;97537.63;;;15.80;60.95
47556;BME280;33291;46.222;26.460;2022-10-28T15:01:17;97535.00;;;15.80;60.70
47556;BME280;33291;46.222;26.460;2022-10-28T15:04:10;97548.69;;;15.74;61.42
47556;BME280;33291;46.222;26.460;2022-10-28T15:06:41;97546.78;;;15.66;61.33
47556;BME280;33291;46.222;26.460;2022-10-28T15:09:30;97533.59;;;15.48;62.36
47556;BME280;33291;46.222;26.460;2022-10-28T15:12:00;97562.63;;;15.46;62.63
47556;BME280;33291;46.222;26.460;2022-10-28T15:17:01;97561.81;;;15.36;63.14
47556;BME280;33291;46.222;26.460;2022-10-28T15:19:31;97565.72;;;15.32;63.07
47556;BME280;33291;46.222;26.460;2022-10-28T15:22:06;97563.53;;;15.18;64.18
47556;BME280;33291;46.222;26.460;2022-10-28T15:24:32;97560.22;;;15.06;64.36
47556;BME280;33291;46.222;26.460;2022-10-28T15:26:58;97576.53;;;15.00;65.06
47556;BME280;33291;46.222;26.460;2022-10-28T15:29:24;97572.41;;;14.87;65.37
47556;BME280;33291;46.222;26.460;2022-10-28T15:32:10;97572.81;;;14.83;65.39
47556;BME280;33291;46.222;26.460;2022-10-28T15:34:38;97569.94;;;14.66;65.49
47556;BME280;33291;46.222;26.460;2022-10-28T15:37:04;97586.25;;;14.70;65.39
47556;BME280;33291;46.222;26.460;2022-10-28T15:39:30;97566.56;;;14.54;65.55
47556;BME280;33291;46.222;26.460;2022-10-28T15:41:56;97594.88;;;14.51;66.56
47556;BME280;33291;46.222;26.460;2022-10-28T15:46:59;97571.53;;;14.18;67.49
47556;BME280;33291;46.222;26.460;2022-10-28T15:49:35;97578.13;;;14.13;67.56
47556;BME280;33291;46.222;26.460;2022-10-28T15:54:53;97589.16;;;14.07;68.55
47556;BME280;33291;46.222;26.460;2022-10-28T15:57:30;97591.03;;;13.95;68.69
47556;BME280;33291;46.222;26.460;2022-10-28T16:00:32;97601.50;;;13.85;69.10
47556;BME280;33291;46.222;26.460;2022-10-28T16:03:05;97600.50;;;13.76;69.54
47556;BME280;33291;46.222;26.460;2022-10-28T16:08:24;97597.47;;;13.50;70.89
47556;BME280;33291;46.222;26.460;2022-10-28T16:10:54;97589.44;;;13.42;70.74
47556;BME280;33291;46.222;26.460;2022-10-28T16:13:44;97602.72;;;13.50;70.73